createdAt,value
2022-08-29T00:01:59.062Z,5.43
2022-08-29T00:04:25.608Z,6.72
2022-08-29T00:06:52.362Z,6.18
2022-08-29T00:09:18.793Z,6.75
2022-08-29T00:11:46.649Z,6.35
2022-08-29T00:14:21.080Z,5.18
2022-08-29T00:16:50.223Z,6.30
2022-08-29T00:19:16.733Z,5.40
2022-08-29T00:21:43.226Z,6.30
2022-08-29T00:24:09.698Z,6.28
2022-08-29T00:26:36.152Z,7.00
2022-08-29T00:29:02.701Z,3.60
2022-08-29T00:31:29.204Z,6.30
2022-08-29T00:33:57.582Z,5.38
2022-08-29T00:36:25.257Z,6.03
2022-08-29T00:38:52.964Z,5.15
2022-08-29T00:41:19.721Z,5.50
2022-08-29T00:43:46.372Z,4.28
2022-08-29T00:46:41.452Z,5.28
2022-08-29T00:49:13.451Z,5.28
2022-08-29T00:51:41.046Z,6.07
2022-08-29T00:54:10.084Z,4.72
2022-08-29T00:56:37.981Z,6.03
2022-08-29T00:59:09.381Z,6.15
2022-08-29T01:01:36.049Z,5.53
2022-08-29T01:04:02.647Z,5.25
2022-08-29T01:06:32.066Z,4.90
2022-08-29T01:08:58.917Z,5.63
2022-08-29T01:11:44.599Z,4.55
2022-08-29T01:14:11.150Z,4.68
2022-08-29T01:16:37.699Z,5.30
2022-08-29T01:19:16.131Z,6.35
2022-08-29T01:21:52.470Z,4.45
2022-08-29T01:24:38.881Z,6.18
2022-08-29T01:27:05.685Z,4.32
2022-08-29T01:29:32.232Z,5.85
2022-08-29T01:31:58.698Z,6.25
2022-08-29T01:34:27.163Z,5.15
2022-08-29T01:36:56.469Z,5.43
2022-08-29T01:39:26.556Z,5.65
2022-08-29T01:41:53.483Z,7.68
2022-08-29T01:44:21.796Z,4.82
2022-08-29T01:46:51.059Z,3.85
2022-08-29T01:49:18.812Z,6.15
2022-08-29T01:51:45.762Z,6.90
2022-08-29T01:54:13.025Z,4.70
2022-08-29T01:56:43.130Z,5.28
2022-08-29T01:59:14.619Z,5.88
2022-08-29T02:01:46.595Z,6.63
2022-08-29T02:04:13.102Z,6.32
2022-08-29T02:06:40.219Z,5.22
2022-08-29T02:09:07.070Z,5.13
2022-08-29T02:11:38.745Z,6.78
2022-08-29T02:14:06.435Z,4.70
2022-08-29T02:16:33.010Z,6.22
2022-08-29T02:19:00.032Z,5.78
2022-08-29T02:21:29.105Z,5.38
2022-08-29T02:23:57.980Z,5.28
2022-08-29T02:26:24.441Z,7.25
2022-08-29T02:28:51.762Z,6.63
2022-08-29T02:31:19.794Z,6.70
2022-08-29T02:33:46.693Z,6.50
2022-08-29T02:36:13.746Z,4.75
2022-08-29T02:38:40.598Z,7.40
2022-08-29T02:41:09.370Z,5.75
2022-08-29T02:43:38.932Z,8.30
2022-08-29T02:46:05.394Z,4.82
2022-08-29T02:48:31.998Z,6.13
2022-08-29T02:51:01.255Z,5.72
2022-08-29T02:53:30.998Z,5.38
2022-08-29T02:55:58.250Z,4.55
2022-08-29T02:58:25.558Z,6.40
2022-08-29T03:00:53.982Z,8.13
2022-08-29T03:03:21.090Z,5.00
2022-08-29T03:05:47.967Z,6.22
2022-08-29T03:08:14.976Z,5.82
2022-08-29T03:10:42.673Z,6.40
2022-08-29T03:13:09.990Z,4.60
2022-08-29T03:15:36.439Z,7.35
2022-08-29T03:18:03.261Z,5.85
2022-08-29T03:20:29.851Z,6.30
2022-08-29T03:22:56.436Z,5.97
2022-08-29T03:25:23.534Z,5.78
2022-08-29T03:27:50.220Z,5.47
2022-08-29T03:30:17.358Z,5.28
2022-08-29T03:32:44.938Z,6.57
2022-08-29T03:35:12.058Z,6.72
2022-08-29T03:37:38.588Z,5.70
2022-08-29T03:40:06.359Z,5.32
2022-08-29T03:42:32.889Z,6.20
2022-08-29T03:44:59.321Z,7.13
2022-08-29T03:47:25.893Z,5.65
2022-08-29T03:49:52.326Z,7.25
2022-08-29T03:52:18.767Z,4.88
2022-08-29T03:54:45.238Z,5.03
2022-08-29T03:57:11.905Z,7.90
2022-08-29T03:59:38.401Z,4.45
2022-08-29T04:02:04.967Z,4.82
2022-08-29T04:04:50.128Z,6.70
2022-08-29T04:07:17.662Z,5.57
2022-08-29T04:09:44.325Z,7.53
2022-08-29T04:12:12.090Z,7.30
2022-08-29T04:14:39.239Z,7.93
2022-08-29T04:17:05.985Z,5.90
2022-08-29T04:19:33.253Z,4.22
2022-08-29T04:22:00.127Z,7.55
2022-08-29T04:24:26.776Z,5.93
2022-08-29T04:26:53.290Z,5.90
2022-08-29T04:29:19.726Z,8.98
2022-08-29T04:31:46.185Z,6.25
2022-08-29T04:34:13.279Z,7.47
2022-08-29T04:36:42.840Z,6.03
2022-08-29T04:39:09.820Z,8.00
2022-08-29T04:41:36.895Z,5.68
2022-08-29T04:44:04.652Z,5.13
2022-08-29T04:46:31.548Z,6.68
2022-08-29T04:49:01.910Z,7.38
2022-08-29T04:51:31.075Z,10.50
2022-08-29T04:53:57.558Z,6.80
2022-08-29T04:56:24.073Z,6.18
2022-08-29T04:58:51.921Z,7.78
2022-08-29T05:01:22.220Z,5.18
2022-08-29T05:03:49.333Z,7.65
2022-08-29T05:06:17.875Z,6.78
2022-08-29T05:08:46.191Z,8.45
2022-08-29T05:11:22.528Z,7.07
2022-08-29T05:13:50.009Z,5.05
2022-08-29T05:16:17.696Z,9.20
2022-08-29T05:18:46.171Z,7.68
2022-08-29T05:21:14.004Z,6.28
2022-08-29T05:23:40.582Z,7.50
2022-08-29T05:26:07.071Z,4.80
2022-08-29T05:28:34.998Z,6.78
2022-08-29T05:31:02.053Z,6.28
2022-08-29T05:33:28.659Z,7.43
2022-08-29T05:35:55.128Z,4.38
2022-08-29T05:38:21.607Z,4.57
2022-08-29T05:40:48.138Z,6.55
2022-08-29T05:43:14.687Z,8.50
2022-08-29T05:45:41.771Z,4.65
2022-08-29T05:48:09.416Z,7.65
2022-08-29T05:50:43.579Z,5.13
2022-08-29T05:53:11.942Z,4.32
2022-08-29T05:55:44.379Z,7.93
2022-08-29T05:58:12.014Z,5.85
2022-08-29T06:00:42.692Z,5.32
2022-08-29T06:03:10.874Z,6.22
2022-08-29T06:05:38.125Z,6.68
2022-08-29T06:08:05.303Z,7.68
2022-08-29T06:10:32.020Z,3.67
2022-08-29T06:12:58.491Z,5.82
2022-08-29T06:15:28.409Z,5.03
2022-08-29T06:17:56.077Z,6.53
2022-08-29T06:20:23.713Z,5.18
2022-08-29T06:22:50.172Z,7.18
2022-08-29T06:25:37.993Z,6.68
2022-08-29T06:28:03.519Z,5.43
2022-08-29T06:30:31.884Z,4.63
2022-08-29T06:32:58.573Z,8.73
2022-08-29T06:35:25.019Z,8.15
2022-08-29T06:37:51.783Z,6.70
2022-08-29T06:40:18.373Z,7.05
2022-08-29T06:42:44.890Z,7.65
2022-08-29T06:45:11.386Z,6.50
2022-08-29T06:47:37.857Z,5.57
2022-08-29T06:50:04.626Z,6.90
2022-08-29T06:52:31.080Z,4.78
2022-08-29T06:54:57.550Z,8.40
2022-08-29T06:57:24.040Z,8.57
2022-08-29T06:59:50.480Z,7.13
2022-08-29T07:02:17.019Z,5.10
2022-08-29T07:04:43.722Z,7.32
2022-08-29T07:07:10.158Z,9.35
2022-08-29T07:09:36.655Z,8.85
2022-08-29T07:12:03.478Z,8.38
2022-08-29T07:14:29.959Z,4.88
2022-08-29T07:16:56.665Z,8.10
2022-08-29T07:19:23.113Z,5.35
2022-08-29T07:21:49.604Z,6.45
2022-08-29T07:24:16.069Z,7.93
2022-08-29T07:26:43.770Z,8.63
2022-08-29T07:29:14.408Z,7.07
2022-08-29T07:31:41.228Z,6.10
2022-08-29T07:34:07.968Z,8.43
2022-08-29T07:36:35.002Z,6.85
2022-08-29T07:39:03.656Z,6.80
2022-08-29T07:41:30.169Z,8.55
2022-08-29T07:43:57.397Z,5.03
2022-08-29T07:46:25.558Z,6.95
2022-08-29T07:48:52.787Z,6.45
2022-08-29T07:51:22.893Z,4.45
2022-08-29T07:53:49.557Z,9.57
2022-08-29T07:56:20.354Z,5.53
2022-08-29T07:58:46.880Z,5.78
2022-08-29T08:01:20.924Z,7.80
2022-08-29T08:03:49.966Z,7.05
2022-08-29T08:06:17.446Z,6.03
2022-08-29T08:08:43.978Z,5.60
2022-08-29T08:11:10.479Z,8.25
2022-08-29T08:13:37.299Z,7.40
2022-08-29T08:16:09.181Z,8.38
2022-08-29T08:18:36.606Z,7.90
2022-08-29T08:21:03.295Z,5.43
2022-08-29T08:23:29.817Z,4.68
2022-08-29T08:25:56.322Z,7.07
2022-08-29T08:28:22.928Z,6.20
2022-08-29T08:30:49.444Z,5.20
2022-08-29T08:33:16.176Z,4.45
2022-08-29T08:35:46.736Z,5.95
2022-08-29T08:38:13.857Z,8.52
2022-08-29T08:40:46.494Z,6.05
2022-08-29T08:43:26.214Z,5.47
2022-08-29T08:45:55.244Z,5.82
2022-08-29T08:48:24.428Z,4.57
2022-08-29T08:51:03.800Z,4.70
2022-08-29T08:53:36.384Z,7.85
2022-08-29T08:56:16.789Z,5.45
2022-08-29T08:58:53.450Z,5.88
2022-08-29T09:01:27.838Z,4.80
2022-08-29T09:04:21.755Z,6.82
2022-08-29T09:07:22.345Z,4.22
2022-08-29T09:10:10.474Z,8.82
2022-08-29T09:13:00.964Z,5.45
2022-08-29T09:15:44.683Z,4.95
2022-08-29T09:18:44.447Z,7.60
2022-08-29T09:21:40.023Z,5.32
2022-08-29T09:24:12.823Z,8.15
2022-08-29T09:26:39.276Z,9.77
2022-08-29T09:29:09.127Z,5.28
2022-08-29T09:31:36.012Z,6.72
2022-08-29T09:34:11.669Z,5.32
2022-08-29T09:36:45.897Z,7.72
2022-08-29T09:39:30.347Z,4.93
2022-08-29T09:42:00.033Z,5.95
2022-08-29T09:44:34.670Z,4.85
2022-08-29T09:47:07.287Z,5.88
2022-08-29T09:49:34.422Z,4.68
2022-08-29T09:52:24.662Z,5.85
2022-08-29T09:54:51.253Z,4.75
2022-08-29T09:57:29.204Z,3.95
2022-08-29T10:00:18.253Z,6.85
2022-08-29T10:02:53.972Z,5.22
2022-08-29T10:05:36.915Z,5.60
2022-08-29T10:08:07.526Z,4.10
2022-08-29T10:10:36.189Z,3.90
2022-08-29T10:13:20.542Z,4.25
2022-08-29T10:16:08.995Z,3.67
2022-08-29T10:18:51.496Z,5.35
2022-08-29T10:21:33.391Z,4.43
2022-08-29T10:24:20.434Z,4.15
2022-08-29T10:26:50.129Z,5.18
2022-08-29T10:29:41.343Z,3.90
2022-08-29T10:32:13.720Z,4.72
2022-08-29T10:35:01.677Z,4.38
2022-08-29T10:38:05.686Z,5.43
2022-08-29T10:40:50.090Z,4.20
2022-08-29T10:43:27.025Z,2.67
2022-08-29T10:46:05.762Z,3.25
2022-08-29T10:48:47.507Z,3.20
2022-08-29T10:51:20.302Z,5.53
2022-08-29T10:53:58.584Z,3.67
2022-08-29T10:56:31.195Z,5.57
2022-08-29T10:59:09.109Z,4.18
2022-08-29T11:01:48.590Z,4.63
2022-08-29T11:04:27.139Z,2.28
2022-08-29T11:07:23.167Z,3.15
2022-08-29T11:09:52.624Z,6.50
2022-08-29T11:12:46.061Z,4.78
2022-08-29T11:15:18.293Z,2.35
2022-08-29T11:17:48.620Z,6.22
2022-08-29T11:20:22.331Z,3.45
2022-08-29T11:22:56.385Z,3.67
2022-08-29T11:25:22.840Z,4.97
2022-08-29T11:28:01.210Z,3.58
2022-08-29T11:30:30.809Z,2.65
2022-08-29T11:33:04.024Z,4.35
2022-08-29T11:35:33.341Z,4.63
2022-08-29T11:38:24.777Z,3.10
2022-08-29T11:41:27.604Z,2.40
2022-08-29T11:43:59.647Z,2.75
2022-08-29T11:46:40.075Z,4.43
2022-08-29T11:49:24.678Z,4.25
2022-08-29T11:51:54.975Z,3.97
2022-08-29T11:54:25.009Z,3.33
2022-08-29T11:57:11.567Z,4.07
2022-08-29T11:59:44.279Z,2.05
2022-08-29T12:02:31.414Z,2.33
2022-08-29T12:05:20.677Z,3.45
2022-08-29T12:07:54.864Z,4.90
2022-08-29T12:10:24.146Z,2.88
2022-08-29T12:13:05.237Z,7.85
2022-08-29T12:15:38.075Z,3.10
2022-08-29T12:18:07.291Z,6.43
2022-08-29T12:20:56.947Z,5.80
2022-08-29T12:23:31.620Z,2.85
2022-08-29T12:28:59.318Z,2.25
2022-08-29T12:31:38.277Z,2.25
2022-08-29T12:34:18.901Z,2.33
2022-08-29T12:37:19.560Z,4.28
2022-08-29T12:39:59.305Z,2.40
2022-08-29T12:42:39.997Z,3.30
2022-08-29T12:45:13.162Z,2.95
2022-08-29T12:47:49.249Z,2.63
2022-08-29T12:50:29.168Z,3.63
2022-08-29T12:53:23.412Z,3.25
2022-08-29T12:55:58.510Z,2.95
2022-08-29T12:58:46.874Z,2.22
2022-08-29T13:01:25.524Z,3.38
2022-08-29T13:04:01.765Z,6.50
2022-08-29T13:06:28.309Z,3.08
2022-08-29T13:08:54.837Z,2.83
2022-08-29T13:11:24.585Z,2.58
2022-08-29T13:13:51.203Z,2.17
2022-08-29T13:16:30.208Z,4.32
2022-08-29T13:19:12.063Z,4.03
2022-08-29T13:21:38.926Z,2.97
2022-08-29T13:24:21.130Z,4.32
2022-08-29T13:27:05.575Z,3.58
2022-08-29T13:29:39.971Z,4.15
2022-08-29T13:32:23.546Z,3.38
2022-08-29T13:35:18.288Z,4.55
2022-08-29T13:37:46.775Z,3.60
2022-08-29T13:40:31.602Z,5.00
2022-08-29T13:42:59.058Z,2.70
2022-08-29T13:45:26.141Z,3.30
2022-08-29T13:48:03.585Z,3.28
2022-08-29T13:50:31.185Z,4.47
2022-08-29T13:52:58.223Z,2.33
2022-08-29T13:55:24.967Z,1.85
2022-08-29T13:57:53.392Z,2.53
2022-08-29T14:00:27.224Z,2.33
2022-08-29T14:03:02.128Z,2.63
2022-08-29T14:05:28.697Z,3.08
2022-08-29T14:07:55.207Z,2.63
2022-08-29T14:10:21.809Z,2.97
2022-08-29T14:12:48.268Z,3.38
2022-08-29T14:15:17.935Z,3.67
2022-08-29T14:17:46.111Z,3.88
2022-08-29T14:20:13.442Z,3.03
2022-08-29T14:22:40.543Z,2.38
2022-08-29T14:25:08.567Z,1.65
2022-08-29T14:27:35.024Z,4.25
2022-08-29T14:30:01.520Z,4.22
2022-08-29T14:32:27.967Z,3.92
2022-08-29T14:34:54.428Z,3.55
2022-08-29T14:37:21.346Z,2.30
2022-08-29T14:39:49.856Z,3.05
2022-08-29T14:42:16.688Z,3.30
2022-08-29T14:44:43.122Z,3.15
2022-08-29T14:47:09.566Z,3.50
2022-08-29T14:49:36.337Z,1.65
2022-08-29T14:52:03.265Z,4.68
2022-08-29T14:54:29.857Z,3.95
2022-08-29T14:56:56.315Z,3.22
2022-08-29T14:59:25.439Z,3.50
2022-08-29T15:01:54.835Z,2.22
2022-08-29T15:04:36.336Z,4.35
2022-08-29T15:07:05.701Z,2.72
2022-08-29T15:09:32.278Z,4.07
2022-08-29T15:11:58.719Z,2.47
2022-08-29T15:14:25.271Z,2.28
2022-08-29T15:16:51.713Z,5.80
2022-08-29T15:19:53.667Z,2.72
2022-08-29T15:22:05.320Z,3.40
2022-08-29T15:24:31.874Z,3.85
2022-08-29T15:26:58.667Z,2.30
2022-08-29T15:29:25.411Z,2.60
2022-08-29T15:31:51.889Z,3.30
2022-08-29T15:34:18.782Z,2.20
2022-08-29T15:36:45.252Z,2.88
2022-08-29T15:39:13.133Z,2.55
2022-08-29T15:41:39.580Z,3.63
2022-08-29T15:44:06.039Z,3.20
2022-08-29T15:46:33.925Z,4.43
2022-08-29T15:49:06.517Z,3.30
2022-08-29T15:51:33.779Z,3.33
2022-08-29T15:54:00.502Z,3.63
2022-08-29T15:56:27.079Z,3.70
2022-08-29T15:58:53.529Z,4.47
2022-08-29T16:01:20.048Z,3.67
2022-08-29T16:03:46.493Z,2.88
2022-08-29T16:06:12.936Z,2.78
2022-08-29T16:08:39.394Z,3.35
2022-08-29T16:11:12.517Z,3.88
2022-08-29T16:13:38.970Z,4.32
2022-08-29T16:16:05.497Z,3.90
2022-08-29T16:18:32.025Z,3.63
2022-08-29T16:20:58.496Z,3.15
2022-08-29T16:23:24.946Z,3.58
2022-08-29T16:25:51.378Z,3.08
2022-08-29T16:28:18.690Z,3.50
2022-08-29T16:30:46.277Z,3.00
2022-08-29T16:33:13.481Z,2.45
2022-08-29T16:35:39.914Z,2.40
2022-08-29T16:38:06.352Z,2.85
2022-08-29T16:40:32.862Z,4.07
2022-08-29T16:43:00.575Z,2.42
2022-08-29T16:45:27.029Z,3.35
2022-08-29T16:47:57.393Z,2.20
2022-08-29T16:50:24.254Z,2.10
2022-08-29T16:52:50.726Z,2.05
2022-08-29T16:55:17.186Z,2.95
2022-08-29T16:58:03.555Z,2.58
2022-08-29T17:00:30.287Z,1.83
2022-08-29T17:02:56.933Z,6.05
2022-08-29T17:05:24.372Z,3.65
2022-08-29T17:07:50.931Z,1.98
2022-08-29T17:10:17.354Z,1.85
2022-08-29T17:12:43.748Z,2.33
2022-08-29T17:15:10.168Z,2.00
2022-08-29T17:17:36.612Z,1.50
2022-08-29T17:20:03.629Z,5.38
2022-08-29T17:22:30.075Z,3.83
2022-08-29T17:24:56.539Z,3.65
2022-08-29T17:27:26.791Z,2.35
2022-08-29T17:29:55.888Z,2.83
2022-08-29T17:32:22.935Z,2.63
2022-08-29T17:34:50.281Z,8.98
2022-08-29T17:37:16.732Z,3.25
2022-08-29T17:39:43.232Z,2.80
2022-08-29T17:42:10.085Z,4.90
2022-08-29T17:44:36.526Z,2.45
2022-08-29T17:47:02.990Z,2.33
2022-08-29T17:49:29.737Z,2.70
2022-08-29T17:51:56.197Z,3.47
2022-08-29T17:54:23.922Z,3.63
2022-08-29T17:56:56.291Z,3.55
2022-08-29T17:59:27.198Z,2.15
2022-08-29T18:01:54.518Z,3.00
2022-08-29T18:04:22.094Z,2.05
2022-08-29T18:06:48.761Z,1.52
2022-08-29T18:09:15.429Z,2.55
2022-08-29T18:11:44.594Z,2.08
2022-08-29T18:14:11.681Z,2.65
2022-08-29T18:16:38.529Z,2.60
2022-08-29T18:19:05.490Z,1.77
2022-08-29T18:21:32.884Z,2.15
2022-08-29T18:23:59.959Z,3.10
2022-08-29T18:26:27.017Z,2.88
2022-08-29T18:28:54.249Z,2.58
2022-08-29T18:31:21.305Z,2.22
2022-08-29T18:34:03.373Z,2.47
2022-08-29T18:36:32.022Z,2.33
2022-08-29T18:38:58.706Z,2.15
2022-08-29T18:41:25.223Z,1.83
2022-08-29T18:43:51.827Z,2.28
2022-08-29T18:46:18.772Z,2.78
2022-08-29T18:48:45.564Z,2.35
2022-08-29T18:51:12.641Z,2.28
2022-08-29T18:53:39.774Z,2.78
2022-08-29T18:56:06.766Z,3.03
2022-08-29T18:58:34.271Z,2.58
2022-08-29T19:01:27.490Z,2.60
2022-08-29T19:03:56.216Z,4.30
2022-08-29T19:06:26.044Z,3.38
2022-08-29T19:08:53.830Z,2.47
2022-08-29T19:11:20.488Z,2.20
2022-08-29T19:13:49.207Z,2.55
2022-08-29T19:16:20.367Z,2.88
2022-08-29T19:18:47.166Z,1.33
2022-08-29T19:21:14.200Z,1.55
2022-08-29T19:23:46.135Z,1.50
2022-08-29T19:26:17.343Z,3.38
2022-08-29T19:28:44.780Z,2.10
2022-08-29T19:31:12.498Z,2.55
2022-08-29T19:33:42.058Z,1.27
2022-08-29T19:36:09.678Z,2.22
2022-08-29T19:38:36.822Z,0.82
2022-08-29T19:41:05.140Z,1.23
2022-08-29T19:43:33.236Z,1.35
2022-08-29T19:46:01.493Z,4.72
2022-08-29T19:48:28.550Z,1.00
2022-08-29T19:50:55.836Z,2.38
2022-08-29T19:53:26.517Z,1.65
2022-08-29T19:55:55.277Z,0.85
2022-08-29T19:58:32.020Z,1.70
2022-08-29T20:01:03.764Z,0.60
2022-08-29T20:03:31.292Z,0.50
2022-08-29T20:05:59.855Z,1.75
2022-08-29T20:08:27.413Z,0.85
2022-08-29T20:10:56.020Z,1.10
2022-08-29T20:13:22.799Z,1.00
2022-08-29T20:15:50.095Z,0.75
2022-08-29T20:18:18.775Z,2.15
2022-08-29T20:20:46.073Z,0.85
2022-08-29T20:23:14.815Z,0.40
2022-08-29T20:25:41.586Z,0.80
2022-08-29T20:28:08.199Z,0.50
2022-08-29T20:30:43.093Z,1.83
2022-08-29T20:33:11.870Z,0.98
2022-08-29T20:35:58.397Z,1.00
2022-08-29T20:38:25.035Z,2.15
2022-08-29T20:40:54.620Z,0.50
2022-08-29T20:43:21.690Z,1.77
2022-08-29T20:45:48.373Z,1.40
2022-08-29T20:48:15.257Z,0.93
2022-08-29T20:50:42.117Z,2.60
2022-08-29T20:53:14.480Z,0.57
2022-08-29T20:55:43.515Z,0.77
2022-08-29T20:58:10.097Z,0.77
2022-08-29T21:00:36.878Z,1.17
2022-08-29T21:03:22.204Z,1.77
2022-08-29T21:05:48.793Z,0.52
2022-08-29T21:08:21.201Z,1.02
2022-08-29T21:10:49.320Z,0.60
2022-08-29T21:13:17.282Z,0.88
2022-08-29T21:15:44.367Z,2.13
2022-08-29T21:18:12.888Z,0.60
2022-08-29T21:20:53.967Z,0.75
2022-08-29T21:23:23.245Z,1.80
2022-08-29T21:25:59.144Z,0.40
2022-08-29T21:28:27.091Z,0.60
2022-08-29T21:30:54.519Z,0.40
2022-08-29T21:33:21.411Z,1.40
2022-08-29T21:35:50.000Z,0.47
2022-08-29T21:38:17.336Z,0.40
2022-08-29T21:40:50.522Z,0.73
2022-08-29T21:43:17.599Z,0.40
2022-08-29T21:45:44.624Z,2.63
2022-08-29T21:48:11.268Z,2.50
2022-08-29T21:50:38.585Z,1.83
2022-08-29T21:53:05.811Z,0.30
2022-08-29T21:55:33.121Z,0.30
2022-08-29T21:58:00.766Z,1.60
2022-08-29T22:00:35.420Z,0.68
2022-08-29T22:03:05.504Z,0.55
2022-08-29T22:05:33.109Z,0.73
2022-08-29T22:08:01.189Z,1.27
2022-08-29T22:10:31.198Z,0.70
2022-08-29T22:12:58.922Z,1.17
2022-08-29T22:15:44.996Z,0.93
2022-08-29T22:18:14.595Z,0.30
2022-08-29T22:20:42.739Z,0.30
2022-08-29T22:23:10.025Z,0.35
2022-08-29T22:25:36.992Z,0.43
2022-08-29T22:28:04.232Z,1.20
2022-08-29T22:30:32.568Z,0.30
2022-08-29T22:33:00.468Z,0.45
2022-08-29T22:35:27.950Z,1.58
2022-08-29T22:37:54.697Z,0.25
2022-08-29T22:40:21.520Z,1.17
2022-08-29T22:42:48.352Z,1.02
2022-08-29T22:45:16.425Z,0.43
2022-08-29T22:47:44.690Z,1.15
2022-08-29T22:50:15.863Z,0.52
2022-08-29T22:52:42.515Z,0.55
2022-08-29T22:55:12.718Z,0.82
2022-08-29T22:57:40.755Z,2.60
2022-08-29T23:00:09.219Z,0.50
2022-08-29T23:02:35.935Z,0.38
2022-08-29T23:05:06.378Z,0.30
2022-08-29T23:07:35.653Z,0.40
2022-08-29T23:10:03.478Z,0.30
2022-08-29T23:12:30.280Z,0.40
2022-08-29T23:14:57.033Z,0.40
2022-08-29T23:17:23.622Z,2.58
2022-08-29T23:19:50.302Z,0.65
2022-08-29T23:22:16.989Z,0.98
2022-08-29T23:24:58.833Z,0.68
2022-08-29T23:27:27.558Z,1.33
2022-08-29T23:29:54.246Z,1.30
2022-08-29T23:32:20.974Z,0.65
2022-08-29T23:34:47.756Z,0.70
2022-08-29T23:37:14.342Z,1.52
2022-08-29T23:39:40.992Z,2.13
2022-08-29T23:42:07.776Z,1.08
2022-08-29T23:44:35.922Z,1.05
2022-08-29T23:47:02.862Z,0.60
2022-08-29T23:49:29.816Z,0.50
2022-08-29T23:51:56.681Z,0.60
2022-08-29T23:54:25.858Z,0.60
2022-08-29T23:56:53.506Z,0.98
2022-08-29T23:59:38.888Z,0.70
